Time;durP1;ratioP1;P1;durP2;ratioP2;P2;SDS_P1;SDS_P2;PMS_P1;PMS_P2;Temp;Humidity;BMP_temperature;BMP_pressure;BME280_temperature;BME280_humidity;BME280_pressure;Samples;Min_cycle;Max_cycle;Signal;HPM_P1;HPM_P2
2021/03/05 00:00:23;;;;;;;13.83;9.30;;;8.10;99.90;;;;;;4985563;28;20497;-65
2021/03/05 00:02:49;;;;;;;11.37;9.47;;;8.00;99.90;;;;;;4991167;28;20605;-65
2021/03/05 00:05:15;;;;;;;9.67;8.60;;;8.10;99.90;;;;;;4987416;28;20455;-65
2021/03/05 00:07:41;;;;;;;12.20;9.53;;;8.10;99.90;;;;;;4978626;28;20231;-66
2021/03/05 00:10:08;;;;;;;10.57;9.20;;;8.10;99.90;;;;;;4989389;28;20200;-66
2021/03/05 00:12:34;;;;;;;18.00;15.13;;;8.10;99.90;;;;;;4984525;28;20677;-65
2021/03/05 00:15:00;;;;;;;18.07;16.17;;;7.90;99.90;;;;;;4975225;28;21691;-65
2021/03/05 00:17:25;;;;;;;18.40;15.43;;;7.60;99.90;;;;;;4985430;28;20535;-65
2021/03/05 00:19:54;;;;;;;20.23;17.60;;;7.40;99.90;;;;;;4981282;28;20199;-65
2021/03/05 00:22:20;;;;;;;18.97;16.83;;;7.30;99.90;;;;;;4991720;28;20219;-65
2021/03/05 00:24:45;;;;;;;19.60;17.50;;;7.20;99.90;;;;;;4984922;28;20469;-65
2021/03/05 00:27:11;;;;;;;21.13;17.73;;;7.10;99.90;;;;;;4976846;28;20187;-66
2021/03/05 00:29:37;;;;;;;21.80;18.47;;;7.10;99.90;;;;;;4989853;28;20236;-67
2021/03/05 00:32:02;;;;;;;25.63;22.20;;;6.90;99.90;;;;;;4985049;28;20638;-66
2021/03/05 00:34:28;;;;;;;26.83;21.00;;;6.90;99.90;;;;;;4976023;28;20183;-66
2021/03/05 00:36:54;;;;;;;26.20;20.23;;;6.80;99.90;;;;;;4977347;28;20545;-66
2021/03/05 00:39:19;;;;;;;26.30;20.33;;;6.70;99.90;;;;;;4984510;28;20226;-67
2021/03/05 00:41:45;;;;;;;23.57;20.10;;;6.80;99.90;;;;;;4982011;28;20563;-67
2021/03/05 00:44:10;;;;;;;25.97;19.70;;;6.80;99.90;;;;;;4987209;28;20176;-66
2021/03/05 00:46:36;;;;;;;26.67;22.40;;;6.80;99.90;;;;;;4975142;28;20179;-67
2021/03/05 00:49:02;;;;;;;24.20;20.37;;;6.70;99.90;;;;;;4987225;28;20289;-66
2021/03/05 00:51:27;;;;;;;27.07;21.63;;;6.60;99.90;;;;;;4978704;28;20521;-67
2021/03/05 00:53:53;;;;;;;26.20;21.07;;;6.60;99.90;;;;;;4980783;28;20460;-67
2021/03/05 00:56:19;;;;;;;27.83;21.43;;;6.60;99.90;;;;;;4987232;28;20184;-66
2021/03/05 00:58:44;;;;;;;29.23;22.83;;;6.50;99.90;;;;;;4974120;28;20275;-67
2021/03/05 01:01:10;;;;;;;24.63;19.87;;;6.50;99.90;;;;;;4978362;28;20797;-67
2021/03/05 01:03:35;;;;;;;25.43;21.43;;;6.50;99.90;;;;;;4981477;28;20181;-67
2021/03/05 01:06:02;;;;;;;27.20;20.37;;;6.50;99.90;;;;;;4984596;28;20263;-66
2021/03/05 01:08:27;;;;;;;25.90;19.70;;;6.40;99.90;;;;;;4988358;28;20739;-66
2021/03/05 01:10:53;;;;;;;23.93;18.37;;;6.30;99.90;;;;;;4975591;28;20439;-67
2021/03/05 01:13:18;;;;;;;25.70;19.53;;;6.20;99.90;;;;;;4990891;28;20203;-67
2021/03/05 01:15:44;;;;;;;28.87;22.27;;;6.10;99.90;;;;;;4980046;28;20599;-67
2021/03/05 01:18:09;;;;;;;24.80;20.17;;;5.90;99.90;;;;;;4988642;28;20175;-66
2021/03/05 01:20:36;;;;;;;30.10;21.57;;;5.90;99.90;;;;;;4981227;28;20180;-66
2021/03/05 01:23:02;;;;;;;28.63;20.90;;;5.90;99.90;;;;;;4985077;28;20207;-66
2021/03/05 01:25:30;;;;;;;29.90;21.93;;;5.90;99.90;;;;;;4988007;28;20448;-66
2021/03/05 01:27:56;;;;;;;29.30;21.43;;;5.90;99.90;;;;;;4988031;28;20477;-67
2021/03/05 01:30:22;;;;;;;32.00;23.33;;;5.80;99.90;;;;;;4990390;28;20470;-66
2021/03/05 01:32:49;;;;;;;33.87;23.17;;;5.70;99.90;;;;;;4976482;28;20211;-67
2021/03/05 01:35:20;;;;;;;37.17;23.27;;;5.60;99.90;;;;;;4979796;28;20435;-66
2021/03/05 01:37:46;;;;;;;38.27;25.23;;;5.60;99.90;;;;;;4983906;28;20427;-66
2021/03/05 01:40:16;;;;;;;37.57;25.60;;;5.60;99.90;;;;;;4991481;28;20454;-67
2021/03/05 01:42:42;;;;;;;30.70;22.40;;;5.50;99.90;;;;;;4992091;28;20846;-66
2021/03/05 01:45:13;;;;;;;38.77;23.07;;;5.50;99.90;;;;;;4990205;28;20465;-66
2021/03/05 01:47:39;;;;;;;34.17;21.87;;;5.60;99.90;;;;;;4991294;28;20426;-66
2021/03/05 01:50:15;;;;;;;32.67;21.90;;;5.60;99.90;;;;;;4980802;28;20478;-66
2021/03/05 01:52:46;;;;;;;27.23;21.57;;;5.50;99.90;;;;;;4993070;28;20478;-66
2021/03/05 01:55:12;;;;;;;31.23;20.87;;;5.50;99.90;;;;;;4988055;28;20434;-67
2021/03/05 01:57:38;;;;;;;31.10;21.23;;;5.60;99.90;;;;;;4991805;28;20439;-66
2021/03/05 02:00:05;;;;;;;28.40;19.90;;;5.40;99.90;;;;;;4981491;28;20450;-66
2021/03/05 02:02:30;;;;;;;25.13;18.07;;;5.40;99.90;;;;;;4992327;28;20186;-67
2021/03/05 02:04:56;;;;;;;29.83;19.60;;;5.40;99.90;;;;;;4979319;28;20448;-67
2021/03/05 02:07:21;;;;;;;25.30;17.63;;;5.40;99.90;;;;;;4983752;28;20212;-66
2021/03/05 02:09:47;;;;;;;26.47;17.50;;;5.40;99.90;;;;;;4979161;28;20215;-67
2021/03/05 02:12:12;;;;;;;24.13;18.10;;;5.30;99.90;;;;;;4993590;28;20590;-67
2021/03/05 02:14:38;;;;;;;26.87;19.97;;;5.30;99.90;;;;;;4978499;28;20184;-66
2021/03/05 02:17:25;;;;;;;29.33;20.40;;;5.30;99.90;;;;;;4990326;28;20184;-67
2021/03/05 02:20:22;;;;;;;36.33;21.97;;;5.30;99.90;;;;;;4975349;28;20228;-67
2021/03/05 02:23:39;;;;;;;30.60;21.97;;;5.20;99.90;;;;;;4983659;28;20442;-66
2021/03/05 02:26:25;;;;;;;34.50;23.23;;;5.20;99.90;;;;;;4996679;28;20446;-66
2021/03/05 02:29:19;;;;;;;34.97;24.27;;;5.10;99.90;;;;;;4991763;28;20468;-66
2021/03/05 02:31:47;;;;;;;37.47;23.70;;;5.10;99.90;;;;;;4985418;28;20439;-67
2021/03/05 02:34:45;;;;;;;37.07;23.80;;;5.10;99.90;;;;;;4992735;28;20464;-66
2021/03/05 02:37:12;;;;;;;32.93;22.67;;;5.10;99.90;;;;;;4989787;28;20528;-67
2021/03/05 02:39:44;;;;;;;31.57;22.47;;;5.10;99.90;;;;;;4988970;28;20451;-67
2021/03/05 02:42:18;;;;;;;35.83;22.37;;;5.10;99.90;;;;;;4975610;28;20419;-67
2021/03/05 02:44:47;;;;;;;39.40;24.07;;;5.00;99.90;;;;;;4979226;28;20759;-67
2021/03/05 02:47:17;;;;;;;38.20;24.30;;;5.10;99.90;;;;;;4982512;28;20427;-67
2021/03/05 02:49:46;;;;;;;35.63;23.70;;;5.10;99.90;;;;;;4991688;28;20993;-66
2021/03/05 02:52:16;;;;;;;39.60;24.17;;;5.20;99.90;;;;;;4981832;28;20802;-66
2021/03/05 02:54:43;;;;;;;36.60;24.00;;;5.20;99.90;;;;;;4981719;28;20437;-66
2021/03/05 02:57:15;;;;;;;39.00;24.83;;;5.20;99.90;;;;;;4993212;28;20794;-66
2021/03/05 02:59:42;;;;;;;35.50;22.67;;;5.10;99.90;;;;;;4984782;28;20458;-67
2021/03/05 03:02:09;;;;;;;34.90;23.83;;;5.00;99.90;;;;;;4992111;28;20493;-66
2021/03/05 03:04:37;;;;;;;32.00;22.27;;;5.00;99.90;;;;;;4993145;28;20952;-66
2021/03/05 03:07:03;;;;;;;31.23;22.00;;;5.10;99.90;;;;;;4985521;28;20474;-67
2021/03/05 03:09:31;;;;;;;34.80;23.63;;;5.00;99.90;;;;;;4991535;28;20854;-66
2021/03/05 03:11:58;;;;;;;35.17;23.60;;;4.90;99.90;;;;;;4976192;28;20517;-66
2021/03/05 03:14:23;;;;;;;33.60;22.00;;;4.90;99.90;;;;;;4992603;28;20961;-66
2021/03/05 03:16:50;;;;;;;30.40;21.63;;;4.90;99.90;;;;;;4981997;28;20529;-66
2021/03/05 03:19:19;;;;;;;35.70;23.73;;;5.00;99.90;;;;;;4979745;28;20231;-66
2021/03/05 03:21:45;;;;;;;31.23;22.00;;;5.00;99.90;;;;;;4991914;28;20809;-66
2021/03/05 03:24:11;;;;;;;31.80;21.87;;;5.00;99.90;;;;;;4991336;28;20493;-66
2021/03/05 03:26:38;;;;;;;31.83;22.13;;;5.00;99.90;;;;;;4993197;28;20439;-66
2021/03/05 03:29:08;;;;;;;33.67;23.20;;;5.00;99.90;;;;;;4981943;28;20535;-66
2021/03/05 03:31:36;;;;;;;32.27;22.40;;;5.00;99.90;;;;;;4974169;28;20446;-67
2021/03/05 03:34:03;;;;;;;34.60;23.43;;;5.10;99.90;;;;;;4988444;28;20524;-66
2021/03/05 03:36:29;;;;;;;29.50;21.90;;;5.10;99.90;;;;;;4980159;28;20959;-67
2021/03/05 03:38:55;;;;;;;28.13;21.20;;;5.10;99.90;;;;;;4991501;28;20509;-66
2021/03/05 03:41:22;;;;;;;30.57;22.00;;;5.10;99.90;;;;;;4988218;28;20521;-67
2021/03/05 03:43:48;;;;;;;30.10;22.53;;;5.10;99.90;;;;;;4980447;28;20817;-66
2021/03/05 03:46:13;;;;;;;33.23;22.87;;;5.00;99.90;;;;;;4989163;28;20443;-67
2021/03/05 03:48:45;;;;;;;33.17;21.23;;;4.90;99.90;;;;;;4978824;28;20281;-66
2021/03/05 03:51:14;;;;;;;33.17;23.57;;;4.80;99.90;;;;;;4988525;28;20258;-65
2021/03/05 03:53:41;;;;;;;33.00;23.37;;;4.80;99.90;;;;;;4990926;28;20589;-65
2021/03/05 03:56:10;;;;;;;32.60;21.90;;;4.90;99.90;;;;;;4976270;28;20964;-66
2021/03/05 03:58:38;;;;;;;36.60;22.90;;;4.80;99.90;;;;;;4991016;28;20477;-66
2021/03/05 04:01:09;;;;;;;31.77;21.77;;;4.80;99.90;;;;;;4990597;28;20434;-65
2021/03/05 04:03:37;;;;;;;23.73;19.90;;;4.90;99.90;;;;;;4991929;28;20797;-65
2021/03/05 04:06:04;;;;;;;29.53;20.23;;;4.90;99.90;;;;;;4984875;28;20445;-66
2021/03/05 04:08:32;;;;;;;26.07;18.77;;;4.90;99.90;;;;;;4986549;28;20533;-65
2021/03/05 04:10:58;;;;;;;23.00;17.87;;;4.90;99.90;;;;;;4991821;28;20445;-65
2021/03/05 04:13:25;;;;;;;21.90;17.03;;;4.80;99.90;;;;;;4986529;28;20466;-66
2021/03/05 04:15:50;;;;;;;22.53;17.30;;;4.80;99.90;;;;;;4979789;28;20446;-66
2021/03/05 04:18:16;;;;;;;23.13;18.47;;;4.80;99.90;;;;;;4976756;28;20755;-65
2021/03/05 04:20:44;;;;;;;23.40;17.63;;;4.80;99.90;;;;;;4989150;28;20194;-65
2021/03/05 04:23:10;;;;;;;21.53;16.27;;;4.80;99.90;;;;;;4991776;28;20191;-65
2021/03/05 04:25:36;;;;;;;19.77;15.90;;;4.90;99.90;;;;;;4990813;28;20426;-65
2021/03/05 04:28:01;;;;;;;24.57;16.63;;;4.80;99.90;;;;;;4977263;28;20442;-65
2021/03/05 04:30:27;;;;;;;21.43;16.10;;;4.90;99.90;;;;;;4988360;28;20187;-66
2021/03/05 04:32:53;;;;;;;21.63;16.07;;;4.90;99.90;;;;;;4980217;28;20286;-66
2021/03/05 04:35:18;;;;;;;18.63;15.03;;;4.80;99.90;;;;;;4991471;28;20314;-66
2021/03/05 04:37:44;;;;;;;18.40;15.00;;;4.80;99.90;;;;;;4980953;28;20661;-66
2021/03/05 04:40:11;;;;;;;19.47;14.97;;;4.70;99.90;;;;;;4987731;28;20203;-66
2021/03/05 04:42:37;;;;;;;20.33;14.83;;;4.70;99.90;;;;;;4975689;28;20195;-66
2021/03/05 04:45:04;;;;;;;20.83;14.33;;;4.60;99.90;;;;;;4985157;28;20439;-66
2021/03/05 04:47:30;;;;;;;20.33;15.40;;;4.60;99.90;;;;;;4993760;28;21019;-66
2021/03/05 04:49:56;;;;;;;16.77;13.63;;;4.60;99.90;;;;;;4997056;28;20567;-66
2021/03/05 04:52:21;;;;;;;17.87;14.27;;;4.60;99.90;;;;;;5000271;28;20212;-66
2021/03/05 04:54:47;;;;;;;21.07;16.57;;;4.60;99.90;;;;;;4976189;28;20279;-66
2021/03/05 04:57:13;;;;;;;18.87;15.47;;;4.50;99.90;;;;;;4977144;28;21034;-65
2021/03/05 04:59:39;;;;;;;19.10;15.10;;;4.50;99.90;;;;;;4991161;28;20203;-65
2021/03/05 05:02:04;;;;;;;19.37;14.47;;;4.50;99.90;;;;;;4978314;28;20180;-65
2021/03/05 05:04:30;;;;;;;19.40;14.63;;;4.50;99.90;;;;;;4971773;28;20242;-66
2021/03/05 05:06:55;;;;;;;18.03;14.70;;;4.50;99.90;;;;;;4997030;28;20549;-65
2021/03/05 05:09:21;;;;;;;19.13;14.87;;;4.60;99.90;;;;;;4989197;28;20245;-65
2021/03/05 05:11:47;;;;;;;20.13;14.33;;;4.60;99.90;;;;;;4991047;28;20745;-65
2021/03/05 05:14:13;;;;;;;18.83;14.50;;;4.60;99.90;;;;;;4990372;28;20473;-65
2021/03/05 05:16:39;;;;;;;19.83;15.20;;;4.60;99.90;;;;;;4991375;28;20613;-66
2021/03/05 05:19:04;;;;;;;18.80;15.73;;;4.60;99.90;;;;;;4979499;28;20199;-66
2021/03/05 05:21:30;;;;;;;24.10;16.93;;;4.60;99.90;;;;;;4975925;28;20183;-66
2021/03/05 05:23:55;;;;;;;19.27;16.07;;;4.50;99.90;;;;;;4986871;28;20187;-65
2021/03/05 05:26:21;;;;;;;22.07;15.77;;;4.50;99.90;;;;;;4975932;28;20192;-66
2021/03/05 05:28:47;;;;;;;19.53;14.20;;;4.50;99.90;;;;;;4991108;28;20207;-66
2021/03/05 05:31:12;;;;;;;19.17;14.30;;;4.40;99.90;;;;;;4989495;28;20223;-65
2021/03/05 05:33:38;;;;;;;18.83;14.47;;;4.40;99.90;;;;;;4984081;28;20254;-65
2021/03/05 05:36:03;;;;;;;22.00;15.77;;;4.40;99.90;;;;;;4976422;28;20218;-66
2021/03/05 05:38:29;;;;;;;20.30;13.97;;;4.50;99.90;;;;;;4984120;28;20195;-66
2021/03/05 05:40:59;;;;;;;19.60;15.70;;;4.50;99.90;;;;;;4978960;28;20270;-66
2021/03/05 05:43:30;;;;;;;26.57;15.53;;;4.60;99.90;;;;;;4971382;28;20183;-66
2021/03/05 05:46:02;;;;;;;23.13;14.60;;;4.60;99.90;;;;;;4987027;28;20888;-66
2021/03/05 05:48:28;;;;;;;16.90;13.00;;;4.50;99.90;;;;;;4972517;28;20813;-65
2021/03/05 05:50:54;;;;;;;20.57;15.23;;;4.50;99.90;;;;;;4971721;28;20963;-66
2021/03/05 05:53:21;;;;;;;18.00;13.83;;;4.50;99.90;;;;;;4986044;28;20458;-65
2021/03/05 05:55:47;;;;;;;17.50;13.40;;;4.50;99.90;;;;;;4987994;28;20497;-66
2021/03/05 05:58:13;;;;;;;16.50;12.70;;;4.60;99.90;;;;;;4972546;28;20957;-65
2021/03/05 06:00:38;;;;;;;19.43;13.90;;;4.50;99.90;;;;;;4974474;28;20180;-65
2021/03/05 06:03:07;;;;;;;19.40;13.13;;;4.50;99.90;;;;;;4981199;28;20783;-65
2021/03/05 06:05:33;;;;;;;20.87;14.67;;;4.40;99.90;;;;;;4985746;28;20684;-66
2021/03/05 06:07:59;;;;;;;17.83;13.13;;;4.30;99.90;;;;;;4989422;28;20431;-66
2021/03/05 06:10:24;;;;;;;21.77;13.30;;;4.30;99.90;;;;;;4991923;28;20176;-65
2021/03/05 06:12:50;;;;;;;17.77;13.57;;;4.40;99.90;;;;;;4990406;28;20616;-65
2021/03/05 06:15:17;;;;;;;18.07;13.13;;;4.40;99.90;;;;;;4991559;28;20600;-65
2021/03/05 06:17:48;;;;;;;17.90;12.40;;;4.40;99.90;;;;;;4996625;28;20550;-65
2021/03/05 06:20:16;;;;;;;20.30;13.00;;;4.50;99.90;;;;;;4997182;28;20570;-66
2021/03/05 06:22:42;;;;;;;20.33;14.00;;;4.60;99.90;;;;;;4993824;28;20447;-66
2021/03/05 06:25:09;;;;;;;20.37;14.57;;;4.50;99.90;;;;;;4975549;28;20435;-66
2021/03/05 06:27:36;;;;;;;19.13;13.60;;;4.50;99.90;;;;;;4989555;28;20434;-65
2021/03/05 06:30:03;;;;;;;18.27;12.90;;;4.50;99.90;;;;;;4994880;28;20510;-66
2021/03/05 06:32:36;;;;;;;17.97;14.07;;;4.60;99.90;;;;;;4999632;28;20469;-66
2021/03/05 06:35:02;;;;;;;21.80;12.27;;;4.60;99.90;;;;;;5004971;28;20486;-65
2021/03/05 06:37:40;;;;;;;18.70;13.40;;;4.60;99.90;;;;;;4989010;28;20959;-65
2021/03/05 06:40:09;;;;;;;15.63;11.97;;;4.50;99.90;;;;;;4981014;28;20532;-65
2021/03/05 06:42:51;;;;;;;22.27;13.73;;;4.50;99.90;;;;;;4992623;28;20437;-66
2021/03/05 06:45:19;;;;;;;21.00;13.00;;;4.40;99.90;;;;;;4992324;28;20443;-65
2021/03/05 06:48:05;;;;;;;17.57;13.03;;;4.50;99.90;;;;;;4991274;28;20441;-66
2021/03/05 06:50:33;;;;;;;18.93;13.00;;;4.50;99.90;;;;;;4980263;28;20435;-65
2021/03/05 06:52:59;;;;;;;16.50;12.90;;;4.60;99.90;;;;;;4987891;28;20987;-65
2021/03/05 06:55:24;;;;;;;20.03;13.10;;;4.50;99.90;;;;;;4982320;28;20435;-66
2021/03/05 06:57:52;;;;;;;20.70;13.10;;;4.50;99.90;;;;;;4992470;28;20176;-66
2021/03/05 07:00:23;;;;;;;19.87;14.17;;;4.50;99.90;;;;;;4992897;28;20210;-66
2021/03/05 07:02:50;;;;;;;18.50;12.77;;;4.50;99.90;;;;;;4982050;28;20438;-66
2021/03/05 07:05:17;;;;;;;19.50;11.90;;;4.50;99.90;;;;;;4980270;28;20435;-66
2021/03/05 07:07:50;;;;;;;20.73;13.00;;;4.60;99.90;;;;;;4983981;28;20784;-66
2021/03/05 07:10:16;;;;;;;19.27;14.60;;;4.70;99.90;;;;;;4985748;28;20479;-66
2021/03/05 07:13:01;;;;;;;21.70;13.67;;;4.70;99.90;;;;;;4976536;28;20463;-66
2021/03/05 07:15:27;;;;;;;18.37;13.23;;;4.60;99.90;;;;;;4989476;28;20437;-66
2021/03/05 07:17:53;;;;;;;19.60;13.30;;;4.60;99.90;;;;;;4979911;28;20427;-66
2021/03/05 07:20:18;;;;;;;17.90;13.10;;;4.60;99.90;;;;;;4984144;28;20223;-66
2021/03/05 07:22:48;;;;;;;18.60;13.97;;;4.60;99.90;;;;;;4989642;28;20640;-66
2021/03/05 07:25:16;;;;;;;18.43;12.33;;;4.70;99.90;;;;;;4984830;28;20188;-66
2021/03/05 07:27:44;;;;;;;17.47;12.90;;;4.70;99.90;;;;;;4982480;28;20449;-65
2021/03/05 07:30:18;;;;;;;18.30;12.73;;;4.70;99.90;;;;;;4982399;28;20491;-66
2021/03/05 07:32:47;;;;;;;21.07;12.97;;;4.70;99.90;;;;;;4984558;28;20550;-66
2021/03/05 07:35:31;;;;;;;18.90;14.43;;;4.80;99.90;;;;;;4974293;28;20449;-65
2021/03/05 07:38:03;;;;;;;18.80;13.67;;;4.80;99.90;;;;;;4978680;28;20481;-66
2021/03/05 07:40:30;;;;;;;21.37;14.80;;;4.90;99.90;;;;;;4977495;28;20430;-65
2021/03/05 07:42:58;;;;;;;18.83;12.60;;;4.90;99.90;;;;;;4992278;28;20513;-65
2021/03/05 07:45:25;;;;;;;23.97;14.60;;;4.90;99.90;;;;;;4982464;28;20434;-66
2021/03/05 07:47:55;;;;;;;21.37;13.63;;;4.90;99.90;;;;;;4987626;28;20444;-66
2021/03/05 07:50:26;;;;;;;27.77;18.43;;;4.90;99.90;;;;;;4989224;28;20443;-66
2021/03/05 07:52:52;;;;;;;24.07;15.03;;;4.90;99.90;;;;;;4981161;28;20988;-65
2021/03/05 07:55:40;;;;;;;16.10;12.93;;;4.90;99.90;;;;;;4988737;28;20481;-66
2021/03/05 07:58:06;;;;;;;21.50;14.63;;;5.00;99.90;;;;;;4985521;28;20426;-67
2021/03/05 08:00:46;;;;;;;22.50;14.70;;;5.10;99.90;;;;;;4973917;28;20446;-66
2021/03/05 08:03:12;;;;;;;19.87;14.60;;;5.10;99.90;;;;;;4980834;28;20430;-66
2021/03/05 08:05:43;;;;;;;22.17;13.30;;;5.10;99.90;;;;;;4984807;28;20433;-66
2021/03/05 08:08:12;;;;;;;18.53;13.57;;;5.10;99.90;;;;;;4985467;28;20513;-65
2021/03/05 08:10:40;;;;;;;23.13;14.67;;;5.10;99.90;;;;;;4985214;28;20434;-66
2021/03/05 08:13:43;;;;;;;22.40;15.30;;;5.20;99.90;;;;;;4990212;28;20490;-65
2021/03/05 08:16:27;;;;;;;17.70;14.00;;;5.20;99.90;;;;;;4986869;28;20430;-65
2021/03/05 08:19:14;;;;;;;18.23;12.73;;;5.30;99.90;;;;;;4989767;28;20521;-66
2021/03/05 08:21:52;;;;;;;20.57;15.00;;;5.40;99.90;;;;;;4980601;28;20426;-65
2021/03/05 08:24:24;;;;;;;22.40;15.77;;;5.50;99.90;;;;;;4988235;28;20786;-66
2021/03/05 08:27:03;;;;;;;19.10;13.60;;;5.40;99.90;;;;;;4978127;28;20434;-66
2021/03/05 08:29:47;;;;;;;17.53;13.53;;;5.40;99.90;;;;;;4980937;28;20459;-65
2021/03/05 08:32:34;;;;;;;22.03;14.80;;;5.40;99.90;;;;;;4984312;28;20834;-66
2021/03/05 08:35:06;;;;;;;17.67;13.20;;;5.30;99.90;;;;;;4975089;28;20910;-66
2021/03/05 08:37:36;;;;;;;20.27;15.03;;;5.30;99.90;;;;;;4985670;28;20426;-65
2021/03/05 08:40:14;;;;;;;21.27;14.00;;;5.40;99.90;;;;;;5019692;22;20493;-64
2021/03/05 08:42:47;;;;;;;18.60;12.80;;;5.50;99.90;;;;;;4997947;28;20434;-64
2021/03/05 08:45:18;;;;;;;20.50;16.10;;;5.50;99.90;;;;;;5006318;28;20462;-64
2021/03/05 08:47:48;;;;;;;17.83;15.00;;;5.50;99.90;;;;;;5003978;28;20433;-64
2021/03/05 08:50:17;;;;;;;19.40;13.63;;;5.50;99.90;;;;;;5009181;28;20450;-64
2021/03/05 08:52:44;;;;;;;17.17;12.37;;;5.50;99.90;;;;;;4993262;28;20947;-64
2021/03/05 08:55:11;;;;;;;17.67;12.73;;;5.50;99.90;;;;;;4995554;28;20488;-64
2021/03/05 08:57:42;;;;;;;16.57;10.70;;;5.50;99.90;;;;;;5003810;28;20453;-64
2021/03/05 09:00:12;;;;;;;18.67;13.30;;;5.50;99.90;;;;;;4982440;28;20446;-64
2021/03/05 09:02:37;;;;;;;17.93;12.80;;;5.40;99.90;;;;;;4992033;28;20438;-64
2021/03/05 09:05:03;;;;;;;17.73;12.53;;;5.40;99.90;;;;;;4992359;28;20521;-64
2021/03/05 09:07:29;;;;;;;15.10;11.17;;;5.40;99.90;;;;;;5004857;28;20167;-64
2021/03/05 09:09:55;;;;;;;15.87;11.17;;;5.40;99.90;;;;;;5004327;28;20453;-64
2021/03/05 09:12:22;;;;;;;20.00;13.20;;;5.40;99.90;;;;;;4999034;28;20516;-64
2021/03/05 09:14:56;;;;;;;13.50;11.20;;;5.40;99.90;;;;;;4993007;28;20187;-65
2021/03/05 09:17:22;;;;;;;14.70;11.20;;;5.40;99.90;;;;;;4994156;28;20441;-64
2021/03/05 09:19:48;;;;;;;15.87;12.10;;;5.40;99.90;;;;;;5002682;28;20498;-64
2021/03/05 09:22:18;;;;;;;14.27;11.07;;;5.40;99.90;;;;;;5000455;28;20430;-64
2021/03/05 09:24:50;;;;;;;20.10;12.10;;;5.40;99.90;;;;;;4980130;28;20443;-64
2021/03/05 09:27:28;;;;;;;16.23;12.00;;;5.50;99.90;;;;;;5001922;28;20443;-64
2021/03/05 09:29:54;;;;;;;20.00;13.03;;;5.70;99.90;;;;;;5007565;28;20449;-64
2021/03/05 09:32:20;;;;;;;15.77;11.63;;;5.80;99.90;;;;;;5005327;28;20488;-64
2021/03/05 09:34:50;;;;;;;15.90;12.17;;;5.80;99.90;;;;;;4992457;28;20431;-64
2021/03/05 09:37:17;;;;;;;19.33;11.43;;;5.80;99.90;;;;;;4995412;28;20439;-65
2021/03/05 09:39:44;;;;;;;15.37;10.70;;;6.00;99.90;;;;;;5000114;28;20469;-64
2021/03/05 09:42:10;;;;;;;12.97;10.17;;;6.10;99.90;;;;;;5002356;28;20522;-64
2021/03/05 09:44:44;;;;;;;14.83;10.80;;;6.20;99.90;;;;;;5001280;28;21013;-64
2021/03/05 09:47:10;;;;;;;17.30;11.33;;;6.30;99.90;;;;;;4986188;28;20520;-64
2021/03/05 09:49:35;;;;;;;16.20;11.40;;;6.20;99.90;;;;;;4985907;28;20550;-64
2021/03/05 09:52:01;;;;;;;14.20;10.70;;;6.40;99.90;;;;;;4986319;28;20374;-64
2021/03/05 09:54:53;;;;;;;15.30;10.53;;;6.50;99.90;;;;;;5001647;28;20653;-64
2021/03/05 09:57:23;;;;;;;17.30;11.77;;;6.60;99.90;;;;;;4995736;28;20195;-64
2021/03/05 09:59:49;;;;;;;14.27;10.00;;;6.50;99.90;;;;;;4992101;28;20485;-64
2021/03/05 10:02:22;;;;;;;14.47;11.27;;;6.50;99.90;;;;;;5004391;28;20599;-64
2021/03/05 10:04:49;;;;;;;14.27;10.70;;;6.50;99.90;;;;;;4992752;28;20187;-64
2021/03/05 10:07:19;;;;;;;15.43;11.00;;;6.40;99.90;;;;;;5004191;28;20437;-64
2021/03/05 10:09:44;;;;;;;17.00;11.10;;;6.30;99.90;;;;;;4991339;28;20454;-64
2021/03/05 10:12:10;;;;;;;13.80;10.27;;;6.30;99.90;;;;;;5000401;28;20954;-64
2021/03/05 10:14:36;;;;;;;14.77;11.00;;;6.30;99.90;;;;;;4998532;28;20230;-64
2021/03/05 10:17:17;;;;;;;15.03;11.10;;;6.40;99.90;;;;;;5010121;28;20445;-64
2021/03/05 10:19:44;;;;;;;12.80;9.60;;;6.40;99.90;;;;;;4995074;28;20458;-64
2021/03/05 10:22:11;;;;;;;14.27;10.00;;;6.40;99.90;;;;;;4999334;28;20488;-65
2021/03/05 10:24:37;;;;;;;13.17;10.07;;;6.50;99.90;;;;;;4999458;28;20435;-64
2021/03/05 10:30:03;;;;;;;12.80;9.87;;;6.60;99.90;;;;;;5001746;28;20503;-64
2021/03/05 10:32:47;;;;;;;12.93;9.90;;;6.60;99.90;;;;;;5009517;28;20596;-64
2021/03/05 10:35:17;;;;;;;15.90;10.77;;;6.70;99.90;;;;;;5003180;28;20430;-64
2021/03/05 10:37:43;;;;;;;15.27;11.57;;;6.90;99.90;;;;;;5005812;28;20437;-65
2021/03/05 10:40:12;;;;;;;12.43;9.57;;;6.90;99.90;;;;;;5006334;28;20502;-64
2021/03/05 10:42:37;;;;;;;15.83;9.67;;;6.90;99.90;;;;;;5005668;28;20436;-65
2021/03/05 10:45:04;;;;;;;13.37;9.27;;;6.90;99.90;;;;;;4999449;28;20542;-64
2021/03/05 10:47:32;;;;;;;13.03;10.40;;;6.90;99.90;;;;;;4997768;28;20183;-64
2021/03/05 10:49:57;;;;;;;15.03;9.67;;;6.80;99.90;;;;;;5000432;28;20468;-64
2021/03/05 10:52:23;;;;;;;13.00;10.53;;;6.80;99.90;;;;;;4997822;28;20517;-65
2021/03/05 10:54:49;;;;;;;13.73;9.90;;;6.80;99.90;;;;;;4997355;28;20575;-65
2021/03/05 10:57:16;;;;;;;13.53;9.50;;;6.80;99.90;;;;;;4995943;28;20214;-65
2021/03/05 10:59:43;;;;;;;16.30;9.50;;;6.80;99.90;;;;;;4996477;28;20435;-65
2021/03/05 11:02:09;;;;;;;13.60;10.50;;;6.70;99.90;;;;;;4995944;28;20810;-65
2021/03/05 11:04:35;;;;;;;15.20;11.83;;;6.70;99.90;;;;;;4993533;28;20423;-65
2021/03/05 11:07:02;;;;;;;15.43;9.73;;;6.70;99.90;;;;;;4992791;28;20434;-65
2021/03/05 11:09:28;;;;;;;11.27;9.20;;;6.60;99.90;;;;;;4993314;28;20203;-65
2021/03/05 11:11:54;;;;;;;15.83;10.97;;;6.50;99.90;;;;;;4993665;28;20433;-65
2021/03/05 11:14:20;;;;;;;19.33;12.70;;;6.60;99.90;;;;;;4993208;28;20469;-65
2021/03/05 11:16:46;;;;;;;16.50;10.97;;;6.50;99.90;;;;;;4993478;28;20810;-65
2021/03/05 11:19:12;;;;;;;18.40;11.83;;;6.60;99.90;;;;;;4993362;28;20442;-65
2021/03/05 11:21:38;;;;;;;15.37;11.00;;;6.60;99.90;;;;;;4993389;28;20563;-65
2021/03/05 11:24:04;;;;;;;15.30;11.07;;;6.50;99.90;;;;;;4993103;28;20626;-65
2021/03/05 11:26:30;;;;;;;16.30;10.57;;;6.60;99.90;;;;;;4993384;28;20456;-65
2021/03/05 11:28:56;;;;;;;18.27;12.17;;;6.70;99.90;;;;;;4993230;28;20527;-65
2021/03/05 11:31:22;;;;;;;19.60;13.20;;;6.80;99.90;;;;;;4993378;28;20539;-65
2021/03/05 11:33:48;;;;;;;16.30;11.33;;;6.80;99.90;;;;;;4992700;28;20462;-65
2021/03/05 11:36:15;;;;;;;11.23;9.33;;;6.90;99.90;;;;;;4993287;28;20423;-65
2021/03/05 11:38:42;;;;;;;16.30;11.30;;;6.90;99.90;;;;;;4992911;28;20198;-64
2021/03/05 11:41:08;;;;;;;14.67;10.57;;;6.80;99.90;;;;;;4993446;28;20431;-65
2021/03/05 11:43:37;;;;;;;13.57;10.67;;;6.80;99.90;;;;;;4992700;28;20515;-65
2021/03/05 11:46:03;;;;;;;14.53;10.03;;;6.60;99.90;;;;;;4991740;28;20554;-65
2021/03/05 11:48:28;;;;;;;16.57;11.33;;;6.50;99.90;;;;;;4992984;28;20418;-65
2021/03/05 11:50:54;;;;;;;17.63;10.77;;;6.40;99.90;;;;;;4992966;28;20180;-65
2021/03/05 11:53:19;;;;;;;12.80;10.90;;;6.40;99.90;;;;;;4992668;28;20569;-65
2021/03/05 11:55:45;;;;;;;16.87;11.90;;;6.40;99.90;;;;;;4992877;28;20175;-65
2021/03/05 11:58:10;;;;;;;17.47;11.60;;;6.50;99.90;;;;;;4993256;28;20652;-65
2021/03/05 12:00:36;;;;;;;16.20;10.60;;;6.40;99.90;;;;;;4992667;28;20195;-65
2021/03/05 12:03:02;;;;;;;17.10;12.03;;;6.30;99.90;;;;;;4992694;28;20196;-65
2021/03/05 12:05:27;;;;;;;18.37;12.30;;;6.30;99.90;;;;;;4992252;28;20195;-65
2021/03/05 12:07:53;;;;;;;15.33;11.10;;;6.50;99.90;;;;;;4992650;28;20188;-65
2021/03/05 12:10:18;;;;;;;15.40;11.50;;;6.50;99.90;;;;;;4992434;28;20205;-65
2021/03/05 12:12:44;;;;;;;15.47;11.53;;;6.50;99.90;;;;;;4992588;28;20215;-64
2021/03/05 12:15:10;;;;;;;17.70;10.90;;;6.50;99.90;;;;;;4992193;28;20168;-65
2021/03/05 12:17:36;;;;;;;13.10;9.80;;;6.50;99.90;;;;;;4992406;28;20649;-65
2021/03/05 12:20:02;;;;;;;12.67;11.00;;;6.40;99.90;;;;;;4991931;28;20441;-65
2021/03/05 12:22:27;;;;;;;16.20;11.00;;;6.30;99.90;;;;;;5007442;28;20670;-64
2021/03/05 12:24:53;;;;;;;13.57;10.60;;;6.20;99.90;;;;;;4991943;28;20421;-65
2021/03/05 12:27:18;;;;;;;13.60;10.07;;;6.10;99.90;;;;;;4992172;28;20652;-64
2021/03/05 12:29:44;;;;;;;14.30;10.87;;;6.00;99.90;;;;;;4992121;28;20567;-65
2021/03/05 12:32:09;;;;;;;18.73;11.50;;;6.00;99.90;;;;;;4992129;28;20541;-64
2021/03/05 12:34:35;;;;;;;16.53;12.40;;;6.00;99.90;;;;;;4991582;28;20254;-65
2021/03/05 12:37:01;;;;;;;15.03;11.03;;;6.00;99.90;;;;;;4991964;28;20194;-65
2021/03/05 12:39:28;;;;;;;16.07;11.30;;;6.10;99.90;;;;;;4991810;28;20219;-65
2021/03/05 12:41:53;;;;;;;15.50;11.70;;;6.20;99.90;;;;;;4991999;28;20450;-64
2021/03/05 12:44:19;;;;;;;16.30;11.10;;;6.20;99.90;;;;;;4991574;28;20451;-65
2021/03/05 12:46:45;;;;;;;13.10;10.37;;;6.30;99.90;;;;;;4991837;28;20190;-65